Time;durP1;ratioP1;P1;durP2;ratioP2;P2;SDS_P1;SDS_P2;PMS_P1;PMS_P2;Temp;Humidity;BMP_temperature;BMP_pressure;BME280_temperature;BME280_humidity;BME280_pressure;Samples;Min_cycle;Max_cycle;Signal;HPM_P1;HPM_P2
2022/03/19 00:00:12;;;;;;;25.53;14.37;;;;;;;10.40;54.07;103012.31;5128536;28;20202;-65
2022/03/19 00:02:40;;;;;;;28.33;14.73;;;;;;;10.46;53.81;103022.59;5128623;28;20470;-65
2022/03/19 00:05:09;;;;;;;25.57;13.50;;;;;;;10.26;54.50;103015.75;5127493;28;20240;-65
2022/03/19 00:07:53;;;;;;;24.07;12.73;;;;;;;10.20;54.42;103015.22;5119419;28;20228;-65
2022/03/19 00:10:24;;;;;;;22.67;10.67;;;;;;;10.20;54.49;103017.88;5121658;28;20278;-64
2022/03/19 00:13:01;;;;;;;20.17;9.13;;;;;;;10.04;54.08;103021.31;5126594;28;20218;-66
2022/03/19 00:15:34;;;;;;;19.03;9.17;;;;;;;10.02;53.62;103017.06;5128092;28;20226;-64
2022/03/19 00:18:10;;;;;;;17.10;8.70;;;;;;;10.07;53.38;103017.66;5127874;28;20232;-65
2022/03/19 00:20:59;;;;;;;16.43;8.10;;;;;;;9.94;53.08;103020.09;5126446;28;20231;-64
2022/03/19 00:23:29;;;;;;;17.93;7.80;;;;;;;9.95;53.29;103021.81;5127803;28;20257;-65
2022/03/19 00:25:57;;;;;;;13.87;7.40;;;;;;;9.95;52.82;103013.84;5127855;28;20209;-65
2022/03/19 00:28:27;;;;;;;17.07;7.27;;;;;;;9.87;53.01;103021.38;5128275;28;20293;-65
2022/03/19 00:30:59;;;;;;;15.40;6.47;;;;;;;9.96;52.25;103018.22;5127557;28;20488;-64
2022/03/19 00:33:31;;;;;;;19.47;6.47;;;;;;;9.84;52.23;103016.25;5126858;28;20216;-64
2022/03/19 00:36:02;;;;;;;20.20;6.57;;;;;;;9.92;51.90;103016.69;5130354;27;20197;-65
2022/03/19 00:38:33;;;;;;;14.37;6.80;;;;;;;9.71;51.97;103018.69;5120187;27;20229;-66
2022/03/19 00:41:02;;;;;;;16.67;6.53;;;;;;;9.66;51.92;103022.50;5122299;27;20216;-64
2022/03/19 00:43:29;;;;;;;12.70;6.23;;;;;;;9.67;51.54;103021.59;5130541;27;20301;-65
2022/03/19 00:45:57;;;;;;;15.37;5.83;;;;;;;9.59;51.66;103029.03;5131542;27;20225;-65
2022/03/19 00:48:27;;;;;;;16.40;5.60;;;;;;;9.39;51.65;103028.31;5131545;27;20205;-64
2022/03/19 00:50:56;;;;;;;11.83;5.27;;;;;;;9.62;51.04;103026.25;5131069;27;20231;-64
2022/03/19 00:53:25;;;;;;;11.23;5.27;;;;;;;9.57;50.86;103020.34;5130984;27;20229;-64
2022/03/19 00:55:54;;;;;;;13.20;5.53;;;;;;;9.48;50.84;103026.13;5131239;27;20220;-65
2022/03/19 00:58:22;;;;;;;14.43;5.50;;;;;;;9.39;50.82;103023.00;5131070;27;20198;-63
2022/03/19 01:00:53;;;;;;;13.97;5.40;;;;;;;9.27;51.26;103017.47;5131438;27;20229;-64
2022/03/19 01:03:21;;;;;;;14.87;5.00;;;;;;;9.50;51.01;103021.59;5130906;27;20293;-64
2022/03/19 01:05:53;;;;;;;15.33;5.27;;;;;;;9.56;50.54;103006.25;5114713;27;20254;-64
2022/03/19 01:08:20;;;;;;;11.43;4.33;;;;;;;9.48;50.52;103010.22;5130490;27;20284;-64
2022/03/19 01:10:48;;;;;;;11.63;5.00;;;;;;;9.35;50.51;103010.00;5131029;27;20219;-65
2022/03/19 01:13:17;;;;;;;12.03;5.03;;;;;;;9.20;50.87;103011.63;5130653;27;20327;-65
2022/03/19 01:15:45;;;;;;;12.83;4.70;;;;;;;9.25;50.79;103009.59;5131064;27;20197;-65
2022/03/19 01:18:12;;;;;;;13.23;5.63;;;;;;;9.19;50.83;103012.56;5130717;27;20221;-65
2022/03/19 01:20:42;;;;;;;13.63;4.70;;;;;;;8.98;50.87;103013.63;5131180;27;20825;-65
2022/03/19 01:23:12;;;;;;;12.20;4.63;;;;;;;9.01;50.90;103017.00;5130414;27;20200;-65
2022/03/19 01:25:40;;;;;;;11.70;4.07;;;;;;;9.06;50.95;103009.66;5130725;27;20206;-65
2022/03/19 01:28:08;;;;;;;13.47;4.50;;;;;;;9.11;50.57;103011.25;5129766;27;20204;-65
2022/03/19 01:30:37;;;;;;;10.33;3.80;;;;;;;9.20;50.36;103011.63;5130152;27;20232;-65
2022/03/19 01:33:05;;;;;;;8.80;4.07;;;;;;;8.84;50.79;103002.88;5130170;27;20638;-64
2022/03/19 01:35:34;;;;;;;12.77;4.60;;;;;;;8.99;50.62;103004.75;5129383;27;20699;-65
2022/03/19 01:38:04;;;;;;;9.43;3.93;;;;;;;8.93;50.99;103005.06;5135277;27;20785;-64
2022/03/19 01:40:32;;;;;;;10.93;4.20;;;;;;;8.95;50.63;103005.84;5110389;28;20203;-65
2022/03/19 01:43:01;;;;;;;12.67;4.47;;;;;;;9.06;50.66;102995.56;5109763;28;20235;-65
2022/03/19 01:45:29;;;;;;;10.23;4.10;;;;;;;9.06;50.54;102998.22;5126421;27;20224;-63
2022/03/19 01:47:58;;;;;;;12.07;3.67;;;;;;;8.99;50.43;102996.81;5131224;27;20481;-64
2022/03/19 01:50:27;;;;;;;12.17;4.40;;;;;;;9.02;50.32;102999.31;5111396;27;20221;-64
2022/03/19 01:52:56;;;;;;;11.33;4.00;;;;;;;9.07;50.28;102999.94;5109213;28;20584;-66
2022/03/19 01:55:26;;;;;;;9.40;4.63;;;;;;;9.13;50.40;103004.09;5109421;28;20247;-65
2022/03/19 01:57:54;;;;;;;13.00;4.30;;;;;;;9.06;50.18;103000.88;5125366;27;20243;-65
2022/03/19 02:00:28;;;;;;;9.43;3.60;;;;;;;8.78;50.87;102995.25;5129925;27;20320;-64
2022/03/19 02:02:58;;;;;;;8.77;3.97;;;;;;;8.83;50.70;102993.22;5127974;27;20266;-66
2022/03/19 02:05:30;;;;;;;12.87;4.63;;;;;;;8.42;51.23;102995.25;5129919;27;20595;-65
2022/03/19 02:07:59;;;;;;;8.80;3.57;;;;;;;8.75;50.83;102998.03;5129436;27;20673;-64
2022/03/19 02:10:28;;;;;;;10.83;4.07;;;;;;;8.58;51.11;102991.78;5109142;28;20678;-65
2022/03/19 02:13:05;;;;;;;12.37;3.73;;;;;;;8.64;51.14;102991.47;5108025;28;20227;-64
2022/03/19 02:15:33;;;;;;;8.00;3.67;;;;;;;8.74;50.88;102991.03;5127733;27;20210;-64
2022/03/19 02:18:04;;;;;;;14.97;4.37;;;;;;;8.44;51.52;102988.09;5130176;27;20250;-64
2022/03/19 02:20:35;;;;;;;8.80;3.90;;;;;;;8.52;51.31;102988.59;5129618;27;20223;-63
2022/03/19 02:25:51;;;;;;;11.60;3.97;;;;;;;8.56;51.20;102992.78;5127673;27;20426;-64
2022/03/19 02:28:19;;;;;;;13.47;4.17;;;;;;;8.54;50.70;102984.91;5127221;27;20213;-64
2022/03/19 02:30:46;;;;;;;12.67;3.80;;;;;;;8.53;51.18;102982.38;5129241;27;20200;-64
2022/03/19 02:33:14;;;;;;;10.60;4.27;;;;;;;8.68;51.17;102982.47;5128463;27;20518;-65
2022/03/19 02:35:42;;;;;;;10.60;4.23;;;;;;;8.55;50.89;102978.69;5128658;27;20696;-64
2022/03/19 02:38:11;;;;;;;11.03;4.17;;;;;;;8.49;51.52;102980.78;5129412;27;20303;-63
2022/03/19 02:40:41;;;;;;;14.30;4.47;;;;;;;8.07;52.15;102973.06;5129235;27;20343;-64
2022/03/19 02:43:09;;;;;;;11.03;3.70;;;;;;;8.39;51.50;102976.88;5128449;27;20300;-64
2022/03/19 02:45:37;;;;;;;9.50;3.43;;;;;;;8.19;51.85;102961.91;5128993;27;20507;-63
2022/03/19 02:48:05;;;;;;;10.63;3.93;;;;;;;7.84;52.55;102969.69;5129286;27;20211;-64
2022/03/19 02:50:34;;;;;;;10.37;4.17;;;;;;;8.00;52.48;102963.72;5128458;27;20671;-64
2022/03/19 02:53:07;;;;;;;7.53;3.77;;;;;;;8.20;52.15;102969.78;5128777;27;20229;-66
2022/03/19 02:55:40;;;;;;;12.23;3.83;;;;;;;7.99;52.40;102968.16;5128738;27;20202;-64
2022/03/19 02:58:15;;;;;;;9.53;4.00;;;;;;;7.81;53.50;102963.69;5120821;27;20208;-64
2022/03/19 03:00:43;;;;;;;9.23;4.30;;;;;;;7.90;52.83;102964.16;5127084;27;20295;-63
2022/03/19 03:03:14;;;;;;;11.30;3.67;;;;;;;8.06;52.79;102956.34;5128608;27;20569;-63
2022/03/19 03:05:43;;;;;;;10.83;3.90;;;;;;;7.71;52.92;102962.41;5128789;27;20199;-63
2022/03/19 03:08:13;;;;;;;8.77;3.37;;;;;;;7.71;53.48;102963.25;5129533;27;20311;-64
2022/03/19 03:10:45;;;;;;;9.17;3.77;;;;;;;7.97;53.41;102961.22;5128807;27;20214;-63
2022/03/19 03:13:12;;;;;;;12.47;3.63;;;;;;;7.81;53.02;102966.34;5128108;27;20580;-64
2022/03/19 03:15:40;;;;;;;10.40;3.67;;;;;;;8.04;53.03;102960.00;5128326;27;20212;-64
2022/03/19 03:18:10;;;;;;;8.73;3.47;;;;;;;8.17;52.50;102964.66;5128476;27;20597;-65
2022/03/19 03:20:54;;;;;;;11.60;3.63;;;;;;;8.05;52.90;102959.91;5128920;27;20305;-64
2022/03/19 03:23:22;;;;;;;9.10;4.70;;;;;;;8.10;52.74;102959.69;5128061;27;20329;-66
2022/03/19 03:25:51;;;;;;;12.87;5.73;;;;;;;8.23;52.62;102958.19;5128263;27;20306;-65
2022/03/19 03:28:18;;;;;;;13.20;3.97;;;;;;;8.26;52.33;102958.06;5128784;27;20207;-64
2022/03/19 03:30:49;;;;;;;10.60;4.03;;;;;;;7.97;53.53;102953.28;5129747;27;20638;-65
2022/03/19 03:33:23;;;;;;;12.60;4.10;;;;;;;7.92;53.52;102953.47;5129341;28;20596;-64
2022/03/19 03:35:51;;;;;;;13.03;4.80;;;;;;;7.89;53.95;102949.22;5129736;28;20687;-65
2022/03/19 03:38:19;;;;;;;11.23;4.53;;;;;;;8.03;53.84;102950.34;5125551;28;20211;-63
2022/03/19 03:40:47;;;;;;;14.30;4.83;;;;;;;8.02;53.29;102948.63;5129851;28;20572;-65
2022/03/19 03:43:16;;;;;;;10.90;4.03;;;;;;;8.11;53.49;102950.84;5129064;28;20208;-65
2022/03/19 03:45:44;;;;;;;10.93;4.17;;;;;;;8.13;53.48;102956.91;5127920;28;20253;-64
2022/03/19 03:48:12;;;;;;;7.93;4.17;;;;;;;8.22;53.35;102948.56;5128514;28;20719;-64
2022/03/19 03:50:50;;;;;;;12.83;4.60;;;;;;;8.27;53.22;102946.53;5128032;28;20208;-64
2022/03/19 03:53:28;;;;;;;13.90;5.73;;;;;;;8.34;53.09;102950.66;5126969;28;20263;-63
2022/03/19 03:55:57;;;;;;;12.53;5.23;;;;;;;8.28;53.22;102948.25;5127376;28;20291;-64
2022/03/19 03:58:26;;;;;;;11.77;4.73;;;;;;;8.16;53.71;102939.13;5128389;28;20294;-66
2022/03/19 04:00:54;;;;;;;15.77;5.13;;;;;;;8.13;54.05;102938.41;5126861;27;20203;-65
2022/03/19 04:03:22;;;;;;;18.03;5.20;;;;;;;8.28;53.73;102940.31;5127948;28;20202;-65
2022/03/19 04:05:50;;;;;;;11.00;4.97;;;;;;;8.22;53.44;102930.06;5107747;28;20286;-65
2022/03/19 04:08:18;;;;;;;11.20;4.93;;;;;;;8.12;53.92;102931.41;5107992;28;20701;-64
2022/03/19 04:10:46;;;;;;;12.00;4.90;;;;;;;7.80;54.93;102933.78;5126028;27;20208;-65
2022/03/19 04:13:14;;;;;;;10.53;4.40;;;;;;;8.18;54.38;102931.97;5131519;27;20232;-63
2022/03/19 04:15:43;;;;;;;11.00;4.53;;;;;;;8.27;53.90;102925.38;5132060;27;20221;-64
2022/03/19 04:18:13;;;;;;;12.00;5.07;;;;;;;8.28;54.14;102924.47;5131843;27;20206;-65
2022/03/19 04:20:41;;;;;;;13.87;5.67;;;;;;;8.27;54.12;102917.47;5132199;27;20664;-65
2022/03/19 04:23:09;;;;;;;12.07;4.43;;;;;;;8.07;54.46;102925.50;5132170;27;20204;-65
2022/03/19 04:25:37;;;;;;;10.57;5.13;;;;;;;8.08;54.42;102916.66;5132410;27;20210;-63
2022/03/19 04:28:11;;;;;;;10.90;4.33;;;;;;;7.99;54.68;102907.38;5132480;27;20207;-64
2022/03/19 04:30:41;;;;;;;17.70;5.00;;;;;;;8.13;54.13;102904.06;5132227;27;20199;-63
2022/03/19 04:33:10;;;;;;;9.43;4.40;;;;;;;8.03;54.42;102908.06;5131710;27;20328;-65
2022/03/19 04:38:24;;;;;;;11.77;4.70;;;;;;;8.00;54.70;102902.94;5115161;27;20207;-64
2022/03/19 04:40:53;;;;;;;13.80;5.83;;;;;;;8.19;54.49;102909.03;5111653;27;20283;-65
2022/03/19 04:43:21;;;;;;;13.77;5.40;;;;;;;8.18;54.52;102904.72;5125033;27;20651;-63
2022/03/19 04:45:49;;;;;;;12.93;5.27;;;;;;;8.11;54.70;102911.19;5131192;27;20316;-65
2022/03/19 04:48:18;;;;;;;15.30;5.33;;;;;;;8.10;54.74;102905.03;5132177;27;20595;-65
2022/03/19 04:50:48;;;;;;;14.73;5.23;;;;;;;8.11;54.98;102905.91;5126483;27;20225;-65
2022/03/19 04:53:16;;;;;;;11.27;4.60;;;;;;;7.73;56.11;102899.81;5131268;27;20310;-65
2022/03/19 04:55:43;;;;;;;10.37;4.80;;;;;;;7.82;56.09;102910.81;5131466;27;20203;-64
2022/03/19 04:58:11;;;;;;;15.20;5.00;;;;;;;7.84;55.75;102908.91;5131216;27;20209;-64
2022/03/19 05:00:39;;;;;;;14.30;4.97;;;;;;;8.04;55.08;102915.94;5130919;27;20215;-65
2022/03/19 05:03:07;;;;;;;14.90;4.70;;;;;;;7.82;56.04;102910.81;5131053;27;20241;-63
2022/03/19 05:05:37;;;;;;;10.90;4.77;;;;;;;7.83;56.13;102907.19;5131196;27;20212;-64
2022/03/19 05:08:06;;;;;;;14.80;5.00;;;;;;;7.75;56.22;102911.13;5131470;27;20217;-64
2022/03/19 05:13:20;;;;;;;10.43;3.77;;;;;;;7.81;56.20;102906.44;5131002;27;20239;-64
2022/03/19 05:15:48;;;;;;;13.07;4.30;;;;;;;7.90;55.69;102908.66;5131253;27;20675;-65
2022/03/19 05:18:16;;;;;;;18.93;4.40;;;;;;;7.74;56.22;102906.81;5131416;27;20867;-63
2022/03/19 05:20:45;;;;;;;16.30;4.43;;;;;;;7.74;56.28;102905.00;5130652;27;20198;-64
2022/03/19 05:23:12;;;;;;;9.57;3.70;;;;;;;7.71;56.50;102910.44;5129747;27;20207;-65
2022/03/19 05:25:40;;;;;;;10.87;3.80;;;;;;;7.69;56.23;102909.63;5130964;27;20671;-65
2022/03/19 05:28:08;;;;;;;14.63;5.37;;;;;;;7.83;56.10;102907.19;5130742;27;20297;-65
2022/03/19 05:30:54;;;;;;;12.73;3.97;;;;;;;7.78;56.31;102908.34;5126469;27;20231;-65
2022/03/19 05:34:29;;;;;;;9.30;4.37;;;;;;;7.71;56.33;102907.78;5131154;27;20211;-65
2022/03/19 05:36:13;;;;;;;12.17;3.77;;;;;;;7.68;56.23;102917.63;5134136;27;20290;-65
2022/03/19 05:38:41;;;;;;;10.23;3.93;;;;;;;7.61;56.83;102905.63;5150566;27;20301;-65
2022/03/19 05:41:09;;;;;;;11.40;3.60;;;;;;;7.70;56.59;102905.22;5131071;27;20211;-65
2022/03/19 05:43:37;;;;;;;11.20;4.23;;;;;;;7.77;56.35;102910.13;5130741;27;20812;-65
2022/03/19 05:46:05;;;;;;;11.33;4.17;;;;;;;7.62;56.86;102910.84;5129094;27;20327;-65
2022/03/19 05:48:33;;;;;;;10.90;4.37;;;;;;;7.39;57.17;102911.88;5124750;27;20549;-64
2022/03/19 05:51:01;;;;;;;10.23;4.47;;;;;;;7.47;57.30;102915.06;5130158;27;20599;-64
2022/03/19 05:53:41;;;;;;;12.73;4.47;;;;;;;7.58;56.88;102901.34;5130631;27;20630;-65
2022/03/19 05:56:08;;;;;;;10.43;4.37;;;;;;;7.72;56.72;102909.50;5131037;27;20216;-64
2022/03/19 05:58:36;;;;;;;14.20;4.10;;;;;;;7.57;57.05;102907.53;5130115;27;20208;-64
2022/03/19 06:01:04;;;;;;;10.57;4.17;;;;;;;7.42;57.65;102914.38;5130181;27;20255;-64
2022/03/19 06:03:32;;;;;;;14.20;4.67;;;;;;;7.64;57.15;102910.78;5129700;27;20208;-65
2022/03/19 06:06:00;;;;;;;9.77;3.97;;;;;;;7.75;56.88;102911.13;5129517;27;20206;-64
2022/03/19 06:08:27;;;;;;;12.43;4.97;;;;;;;7.80;56.74;102907.38;5130043;27;20233;-65
2022/03/19 06:10:58;;;;;;;11.33;4.00;;;;;;;7.68;57.24;102907.91;5130517;27;20212;-64
2022/03/19 06:13:26;;;;;;;15.80;4.13;;;;;;;7.55;57.57;102906.78;5129701;27;20245;-65
2022/03/19 06:15:54;;;;;;;14.93;4.30;;;;;;;7.74;56.87;102905.00;5130360;27;20238;-64
2022/03/19 06:18:22;;;;;;;9.03;4.10;;;;;;;7.54;57.87;102905.06;5130086;27;20205;-65
2022/03/19 06:20:50;;;;;;;14.57;4.50;;;;;;;7.68;57.28;102904.41;5130018;27;20560;-65
2022/03/19 06:23:17;;;;;;;12.93;4.47;;;;;;;7.81;56.87;102902.94;5129699;27;20663;-64
2022/03/19 06:25:45;;;;;;;16.10;6.30;;;;;;;7.83;57.00;102896.63;5129993;27;20210;-64
2022/03/19 06:28:14;;;;;;;15.97;4.93;;;;;;;7.85;56.56;102907.13;5128621;27;20317;-64
2022/03/19 06:30:49;;;;;;;11.90;4.70;;;;;;;7.69;57.25;102903.50;5129532;27;20747;-65
2022/03/19 06:33:18;;;;;;;11.03;4.30;;;;;;;7.66;57.27;102899.19;5128774;27;20207;-65
2022/03/19 06:38:37;;;;;;;12.30;4.50;;;;;;;7.88;56.66;102899.09;5127116;27;20206;-64
2022/03/19 06:41:04;;;;;;;15.40;4.63;;;;;;;7.87;56.81;102892.94;5129730;27;20215;-64
2022/03/19 06:43:34;;;;;;;15.80;5.47;;;;;;;7.84;57.27;102898.34;5128317;27;20265;-64
2022/03/19 06:46:02;;;;;;;11.70;5.20;;;;;;;8.05;56.39;102895.63;5128449;27;20396;-64
2022/03/19 06:48:29;;;;;;;10.83;4.60;;;;;;;7.99;56.63;102901.22;5128866;27;20241;-65
2022/03/19 06:50:57;;;;;;;11.87;4.77;;;;;;;7.89;57.17;102901.66;5127610;27;20203;-64
2022/03/19 06:53:25;;;;;;;9.70;4.30;;;;;;;7.88;57.17;102894.66;5128043;27;20210;-65
2022/03/19 06:56:03;;;;;;;10.53;4.10;;;;;;;7.69;57.65;102891.16;5128802;27;20238;-65
2022/03/19 06:58:32;;;;;;;12.30;4.40;;;;;;;7.77;57.71;102894.28;5128478;27;20784;-64
2022/03/19 07:01:01;;;;;;;8.60;3.67;;;;;;;7.73;57.39;102900.66;5129044;27;20333;-66
2022/03/19 07:03:29;;;;;;;9.63;3.90;;;;;;;7.78;57.65;102903.94;5108990;28;20229;-65
2022/03/19 07:05:58;;;;;;;9.53;3.47;;;;;;;8.05;56.85;102899.13;5109917;28;20284;-65
2022/03/19 07:08:46;;;;;;;12.43;4.23;;;;;;;8.25;56.09;102893.75;5121254;27;20207;-65
2022/03/19 07:11:13;;;;;;;9.67;4.40;;;;;;;8.21;56.85;102899.25;5128755;27;20237;-65
2022/03/19 07:13:42;;;;;;;12.00;4.20;;;;;;;8.23;57.08;102900.03;5128502;27;20278;-66
2022/03/19 07:16:12;;;;;;;9.00;4.53;;;;;;;8.30;56.71;102901.47;5129512;27;20231;-65
2022/03/19 07:18:40;;;;;;;12.40;4.57;;;;;;;8.37;56.21;102902.03;5129832;27;20304;-64
2022/03/19 07:21:09;;;;;;;13.77;5.77;;;;;;;8.37;56.48;102905.53;5129236;27;20302;-65
2022/03/19 07:23:38;;;;;;;18.67;5.67;;;;;;;8.41;56.51;102893.91;5126462;27;20304;-66
2022/03/19 07:26:09;;;;;;;14.43;5.20;;;;;;;8.37;56.81;102888.81;5128771;27;20573;-65
2022/03/19 07:28:38;;;;;;;12.63;5.30;;;;;;;8.64;55.94;102887.44;5128291;27;20204;-64
2022/03/19 07:31:08;;;;;;;13.73;5.97;;;;;;;8.70;55.86;102902.19;5128003;27;20206;-64
2022/03/19 07:33:39;;;;;;;15.73;5.70;;;;;;;8.56;56.11;102901.06;5128210;27;20283;-64
2022/03/19 07:36:07;;;;;;;13.00;5.70;;;;;;;8.67;55.75;102893.47;5127652;28;20320;-67
2022/03/19 07:38:35;;;;;;;13.10;5.87;;;;;;;8.55;56.04;102895.84;5118732;28;20295;-66
2022/03/19 07:43:48;;;;;;;15.10;5.80;;;;;;;8.70;56.22;102894.25;5128892;28;20304;-65
2022/03/19 07:46:16;;;;;;;16.60;6.30;;;;;;;8.75;55.80;102892.22;5131108;27;20647;-66
2022/03/19 07:48:45;;;;;;;18.43;6.30;;;;;;;9.00;55.44;102890.88;5133005;27;20738;-66
2022/03/19 07:51:15;;;;;;;10.07;5.23;;;;;;;8.94;55.79;102882.41;5132656;27;20250;-65
2022/03/19 07:53:43;;;;;;;10.70;5.97;;;;;;;9.01;55.53;102892.59;5132350;27;20205;-65
2022/03/19 07:56:13;;;;;;;17.87;6.10;;;;;;;8.92;55.84;102889.56;5131934;27;20228;-64
2022/03/19 07:58:41;;;;;;;14.80;6.37;;;;;;;9.18;55.97;102888.19;5132689;27;20613;-64
2022/03/19 08:01:23;;;;;;;14.33;6.80;;;;;;;9.23;55.69;102891.47;5132421;27;20330;-64
2022/03/19 08:03:53;;;;;;;16.07;6.70;;;;;;;9.38;55.71;102880.06;5131709;27;20287;-65
2022/03/19 08:06:21;;;;;;;17.43;6.60;;;;;;;9.30;55.40;102885.78;5132384;27;20220;-65
2022/03/19 08:08:48;;;;;;;15.27;6.47;;;;;;;9.47;55.40;102881.38;5131909;27;20291;-65
2022/03/19 08:11:17;;;;;;;14.93;7.07;;;;;;;9.70;54.88;102878.31;5131675;27;20301;-66
2022/03/19 08:13:45;;;;;;;16.37;7.17;;;;;;;9.87;54.85;102872.94;5131526;27;20238;-67
2022/03/19 08:16:13;;;;;;;13.67;6.17;;;;;;;10.07;54.23;102872.69;5125154;27;20267;-66
2022/03/19 08:18:42;;;;;;;16.50;7.00;;;;;;;10.23;53.75;102871.84;5131274;27;20697;-65
2022/03/19 08:21:11;;;;;;;15.47;7.17;;;;;;;10.35;54.10;102876.44;5131928;27;20208;-65
2022/03/19 08:23:39;;;;;;;15.47;6.63;;;;;;;10.53;52.76;102876.25;5131102;27;20290;-66
2022/03/19 08:26:06;;;;;;;15.07;6.70;;;;;;;10.88;52.33;102868.00;5132053;27;20298;-66
2022/03/19 08:28:45;;;;;;;14.10;6.10;;;;;;;14.98;42.65;102857.41;5133812;27;20652;-65
2022/03/19 08:31:13;;;;;;;11.90;5.67;;;;;;;17.71;35.51;102864.91;5133365;27;20698;-65
2022/03/19 08:33:41;;;;;;;18.90;6.93;;;;;;;17.91;33.59;102862.16;5131357;27;20205;-65
2022/03/19 08:36:08;;;;;;;11.23;5.50;;;;;;;23.10;27.04;102855.09;5127390;27;20237;-64
2022/03/19 08:41:26;;;;;;;9.60;4.63;;;;;;;20.92;28.00;102842.75;5132433;27;20205;-64
2022/03/19 08:43:54;;;;;;;12.93;5.37;;;;;;;20.81;28.92;102851.09;5131060;27;20209;-66
2022/03/19 08:46:21;;;;;;;14.07;5.20;;;;;;;23.66;24.97;102831.56;5132431;27;20320;-65
2022/03/19 08:48:49;;;;;;;14.10;5.63;;;;;;;28.06;20.98;102824.00;5131384;27;20254;-65
2022/03/19 08:54:05;;;;;;;13.25;5.82;;;;;;;28.58;20.02;102815.03;5130786;27;20219;-65
2022/03/19 08:56:35;;;;;;;9.63;5.25;;;;;;;27.67;20.14;102813.84;5130198;27;20205;-65
2022/03/19 08:59:03;;;;;;;9.02;4.35;;;;;;;27.91;19.92;102818.72;5131841;27;20220;-67
2022/03/19 09:01:32;;;;;;;9.48;4.55;;;;;;;27.39;20.09;102807.63;5131327;27;20677;-66
2022/03/19 09:04:00;;;;;;;9.18;5.15;;;;;;;31.30;17.36;102791.22;5130679;27;20254;-66
2022/03/19 09:06:28;;;;;;;15.60;5.03;;;;;;;31.92;16.36;102797.34;5131462;27;20202;-66
2022/03/19 09:08:56;;;;;;;7.28;4.43;;;;;;;32.12;16.24;102787.69;5131714;27;20259;-65
2022/03/19 09:11:25;;;;;;;10.07;4.88;;;;;;;33.67;15.19;102777.94;5131769;27;20550;-66
2022/03/19 09:13:53;;;;;;;10.13;4.38;;;;;;;34.53;14.67;102774.75;5130508;27;20239;-67
2022/03/19 09:16:21;;;;;;;9.82;4.43;;;;;;;33.06;15.32;102771.22;5130477;27;20722;-66
2022/03/19 09:18:49;;;;;;;7.90;4.53;;;;;;;32.05;15.82;102764.16;5131231;27;20206;-66
2022/03/19 09:21:17;;;;;;;10.10;4.82;;;;;;;32.84;15.76;102766.38;5130671;27;20600;-66
2022/03/19 09:23:45;;;;;;;12.30;5.38;;;;;;;32.77;15.79;102768.41;5130722;27;20205;-66
2022/03/19 09:26:13;;;;;;;7.38;4.50;;;;;;;34.28;14.96;102764.19;5130311;27;20290;-66
2022/03/19 09:28:43;;;;;;;13.27;4.50;;;;;;;33.17;15.34;102754.69;5132179;27;20329;-66
2022/03/19 09:31:11;;;;;;;7.30;4.65;;;;;;;33.09;15.40;102746.81;5132656;27;20308;-66
2022/03/19 09:33:44;;;;;;;8.82;4.70;;;;;;;28.74;18.26;102754.53;5128463;27;20197;-66
2022/03/19 09:36:12;;;;;;;11.07;5.50;;;;;;;28.20;19.84;102756.69;5130928;27;20282;-66
2022/03/19 09:38:40;;;;;;;7.97;4.30;;;;;;;29.68;17.88;102747.63;5131461;27;20569;-65
2022/03/19 09:41:09;;;;;;;8.52;4.72;;;;;;;27.73;19.27;102744.03;5130683;27;20611;-65
2022/03/19 09:43:48;;;;;;;9.15;4.90;;;;;;;25.63;21.58;102744.31;5131408;27;20201;-65
2022/03/19 09:46:17;;;;;;;9.60;4.25;;;;;;;26.43;21.08;102735.88;5130813;27;20218;-67
2022/03/19 09:48:46;;;;;;;11.52;5.18;;;;;;;28.96;18.53;102729.69;5131412;27;20201;-65
2022/03/19 09:51:14;;;;;;;9.70;4.30;;;;;;;27.22;19.09;102720.81;5130879;27;20209;-64
2022/03/19 09:53:43;;;;;;;8.27;3.92;;;;;;;27.06;19.38;102721.19;5130245;27;20209;-66
2022/03/19 09:56:38;;;;;;;7.30;3.83;;;;;;;28.11;18.03;102704.22;5131478;27;20235;-65
2022/03/19 09:59:07;;;;;;;7.63;3.33;;;;;;;27.53;19.34;102711.28;5130586;27;20617;-66
2022/03/19 10:01:38;;;;;;;5.82;3.30;;;;;;;32.65;15.54;102693.38;5130446;27;20245;-66
2022/03/19 10:04:08;;;;;;;8.45;3.88;;;;;;;30.42;16.42;102692.94;5129255;27;20407;-65
2022/03/19 10:09:42;;;;;;;8.25;3.72;;;;;;;30.22;17.40;102687.66;5130480;27;20697;-66
2022/03/19 10:12:17;;;;;;;6.93;3.50;;;;;;;31.00;16.51;102674.16;5130741;27;20288;-65
2022/03/19 10:14:51;;;;;;;6.40;3.65;;;;;;;27.35;19.28;102676.44;5129199;27;20235;-66
2022/03/19 10:17:30;;;;;;;5.53;3.97;;;;;;;25.70;20.34;102691.72;5130437;27;20621;-66
2022/03/19 10:20:00;;;;;;;6.32;3.92;;;;;;;31.20;16.59;102667.59;5130044;27;20199;-66
2022/03/19 10:22:30;;;;;;;9.35;4.40;;;;;;;30.05;16.95;102664.69;5130250;27;20198;-65
2022/03/19 10:25:00;;;;;;;11.35;4.63;;;;;;;32.62;15.56;102663.69;5129681;27;20249;-66
2022/03/19 10:27:35;;;;;;;6.95;4.32;;;;;;;30.93;16.14;102659.69;5128975;27;20198;-65
2022/03/19 10:30:11;;;;;;;9.82;4.60;;;;;;;29.36;17.18;102656.59;5120283;27;20228;-67
2022/03/19 10:32:40;;;;;;;7.00;3.95;;;;;;;27.81;18.62;102643.78;5129070;27;20239;-65
2022/03/19 10:35:28;;;;;;;6.68;3.90;;;;;;;24.13;21.72;102653.34;5129942;27;20201;-66
2022/03/19 10:37:57;;;;;;;7.80;4.28;;;;;;;27.73;19.45;102645.91;5129652;27;20248;-66
2022/03/19 10:40:38;;;;;;;9.80;4.22;;;;;;;30.64;16.25;102627.63;5128964;27;20229;-66
2022/03/19 10:43:08;;;;;;;6.53;3.88;;;;;;;30.98;16.32;102626.13;5129059;27;20252;-66
2022/03/19 10:45:43;;;;;;;7.55;3.80;;;;;;;26.89;20.25;102628.09;5129361;27;21118;-65
2022/03/19 10:48:12;;;;;;;6.75;3.97;;;;;;;26.64;19.97;102616.06;5129213;27;20618;-66
2022/03/19 10:50:41;;;;;;;6.60;3.63;;;;;;;24.35;19.74;102613.66;5128839;27;20205;-66
2022/03/19 10:53:09;;;;;;;7.85;3.38;;;;;;;26.63;18.00;102610.81;5108781;28;20224;-65
2022/03/19 10:55:38;;;;;;;6.90;2.60;;;;;;;24.06;19.29;102606.31;5108756;28;20253;-65
2022/03/19 10:58:08;;;;;;;5.18;2.65;;;;;;;28.05;16.14;102602.25;5113757;27;20283;-66
2022/03/19 11:01:01;;;;;;;5.88;2.30;;;;;;;29.27;14.26;102590.41;5128668;27;20280;-66
2022/03/19 11:03:31;;;;;;;5.20;2.40;;;;;;;28.66;15.75;102599.16;5129048;27;20578;-65
2022/03/19 11:06:04;;;;;;;6.32;2.88;;;;;;;28.98;14.36;102594.59;5129218;27;20225;-64
2022/03/19 11:08:37;;;;;;;5.72;2.60;;;;;;;23.67;20.51;102584.00;5128814;27;20727;-66
2022/03/19 11:11:13;;;;;;;7.13;2.65;;;;;;;23.29;20.05;102584.00;5125737;27;20721;-66
2022/03/19 11:13:55;;;;;;;5.85;2.88;;;;;;;22.02;21.42;102584.25;5126220;27;20326;-65
2022/03/19 11:16:26;;;;;;;5.82;2.90;;;;;;;22.89;20.48;102567.00;5128738;27;20201;-65
2022/03/19 11:18:55;;;;;;;4.85;2.55;;;;;;;23.80;18.75;102562.56;5127955;27;20278;-65
2022/03/19 11:21:25;;;;;;;5.78;2.67;;;;;;;25.69;17.05;102562.31;5128104;27;20376;-65
2022/03/19 11:23:58;;;;;;;4.60;2.75;;;;;;;25.39;18.31;102568.97;5119939;27;20205;-66
2022/03/19 11:26:29;;;;;;;3.83;2.13;;;;;;;25.63;19.17;102552.25;5125447;27;20258;-65
2022/03/19 11:28:58;;;;;;;3.65;2.03;;;;;;;24.65;17.81;102555.63;5128139;27;20284;-65
2022/03/19 11:31:31;;;;;;;5.75;2.30;;;;;;;25.30;17.12;102542.97;5127392;27;20200;-66
2022/03/19 11:34:13;;;;;;;4.68;2.67;;;;;;;25.00;16.99;102542.25;5108004;28;20579;-66
2022/03/19 11:36:54;;;;;;;5.18;2.40;;;;;;;23.28;18.48;102538.97;5127537;28;20245;-66
2022/03/19 11:39:22;;;;;;;4.80;2.50;;;;;;;23.13;20.97;102532.69;5127929;28;20200;-66
2022/03/19 11:41:51;;;;;;;5.45;2.88;;;;;;;24.11;20.45;102528.00;5126230;28;20208;-66
2022/03/19 11:44:20;;;;;;;7.28;2.65;;;;;;;25.34;18.67;102517.09;5128287;28;20239;-66
2022/03/19 11:47:00;;;;;;;4.07;2.35;;;;;;;25.35;17.91;102514.19;5128951;28;20307;-66
2022/03/19 11:49:48;;;;;;;5.53;2.85;;;;;;;24.80;19.28;102514.91;5128756;28;20280;-66
2022/03/19 11:52:52;;;;;;;5.90;2.58;;;;;;;23.24;19.16;102521.41;5128199;28;20204;-66
2022/03/19 11:55:23;;;;;;;5.20;2.35;;;;;;;23.13;19.21;102497.50;5043984;28;20208;-65
2022/03/19 11:57:57;;;;;;;7.32;3.50;;;;;;;22.11;19.86;102504.00;5115565;28;20212;-67
2022/03/19 12:00:26;;;;;;;5.55;3.17;;;;;;;21.24;23.20;102486.78;5128651;28;20212;-65